Time;durP1;ratioP1;P1;durP2;ratioP2;P2;SDS_P1;SDS_P2;PMS_P1;PMS_P2;Temp;Humidity;BMP_temperature;BMP_pressure;BME280_temperature;BME280_humidity;BME280_pressure;Samples;Min_cycle;Max_cycle;Signal;HPM_P1;HPM_P2
2023/07/26 00:02:09;;;;;;;6.97;2.60;;;;;;;19.12;63.09;97651.50;5021114;28;20144;-94
2023/07/26 00:04:34;;;;;;;5.53;2.08;;;;;;;19.24;62.92;97669.41;5020268;28;20073;-94
2023/07/26 00:07:00;;;;;;;9.18;2.28;;;;;;;19.25;61.48;97653.09;5026086;28;20052;-94
2023/07/26 00:09:26;;;;;;;7.85;2.10;;;;;;;19.30;61.10;97647.34;5028804;28;20052;-94
2023/07/26 00:11:55;;;;;;;5.85;2.00;;;;;;;19.27;59.27;97629.56;5022927;28;20044;-95
2023/07/26 00:14:20;;;;;;;4.67;2.10;;;;;;;19.44;58.97;97651.63;5020556;28;20048;-94
2023/07/26 00:16:49;;;;;;;6.13;2.00;;;;;;;19.43;57.84;97647.19;5020513;28;20279;-93
2023/07/26 00:19:15;;;;;;;6.28;2.13;;;;;;;19.54;57.96;97654.41;5020444;28;20038;-94
2023/07/26 00:21:41;;;;;;;6.10;2.08;;;;;;;19.49;58.19;97630.53;5021501;28;20056;-94
2023/07/26 00:24:07;;;;;;;6.50;2.17;;;;;;;19.46;57.94;97630.78;5020318;28;20049;-94
2023/07/26 00:26:35;;;;;;;7.20;2.17;;;;;;;19.54;58.20;97643.63;5018964;28;20399;-94
2023/07/26 00:29:02;;;;;;;6.47;1.98;;;;;;;19.46;58.38;97637.03;5019642;28;20102;-93
2023/07/26 00:31:28;;;;;;;5.13;1.90;;;;;;;19.43;59.46;97675.03;5019939;28;20060;-94
2023/07/26 00:33:54;;;;;;;7.25;1.92;;;;;;;19.34;59.48;97654.19;5020326;28;20045;-96
2023/07/26 00:36:19;;;;;;;5.78;2.00;;;;;;;19.26;59.65;97653.97;5020144;28;20069;-95
2023/07/26 00:38:45;;;;;;;6.45;2.05;;;;;;;19.29;58.73;97670.72;5020558;28;20054;-95
2023/07/26 00:41:11;;;;;;;5.97;2.00;;;;;;;19.32;58.12;97683.09;5012177;28;20049;-93
2023/07/26 00:43:37;;;;;;;5.05;1.77;;;;;;;19.06;58.92;97661.81;5019872;28;20103;-95
2023/07/26 00:46:06;;;;;;;6.35;1.98;;;;;;;19.01;59.42;97673.91;5019865;28;20120;-93
2023/07/26 00:48:33;;;;;;;4.57;1.80;;;;;;;19.06;58.53;97694.16;5019975;28;20142;-94
2023/07/26 00:51:00;;;;;;;6.53;1.83;;;;;;;19.06;57.85;97694.16;5019680;28;20047;-95
2023/07/26 00:53:27;;;;;;;4.25;2.00;;;;;;;18.95;58.29;97682.47;5019561;28;20045;-94
2023/07/26 00:55:53;;;;;;;5.18;2.05;;;;;;;18.91;58.68;97681.88;5019721;28;20049;-95
2023/07/26 00:58:20;;;;;;;5.60;1.80;;;;;;;18.74;58.22;97667.00;5019338;28;20037;-94
2023/07/26 01:00:46;;;;;;;5.15;2.00;;;;;;;18.76;58.09;97662.34;5019170;28;20045;-94
2023/07/26 01:03:14;;;;;;;6.63;2.15;;;;;;;18.74;58.58;97660.78;5006179;28;20068;-95
2023/07/26 01:05:51;;;;;;;4.18;1.80;;;;;;;18.66;59.61;97690.97;5019137;28;20050;-94
2023/07/26 01:08:29;;;;;;;8.35;2.22;;;;;;;18.64;59.83;97690.22;5019799;28;20045;-94
2023/07/26 01:11:01;;;;;;;7.50;2.10;;;;;;;18.61;60.37;97667.09;5015364;28;20088;-94
2023/07/26 01:13:35;;;;;;;4.70;2.00;;;;;;;18.82;60.35;97682.59;5005311;28;20141;-94
2023/07/26 01:16:02;;;;;;;5.43;2.08;;;;;;;18.76;61.10;97674.94;5019026;28;20037;-93
2023/07/26 01:18:30;;;;;;;5.80;2.00;;;;;;;18.65;61.88;97673.09;5017759;28;20477;-94
2023/07/26 01:20:56;;;;;;;7.15;2.33;;;;;;;18.56;62.48;97655.81;5019286;28;20041;-94
2023/07/26 01:23:23;;;;;;;5.45;2.22;;;;;;;18.65;63.12;97673.09;5019206;28;20050;-95
2023/07/26 01:25:49;;;;;;;3.88;1.90;;;;;;;18.30;66.79;97660.50;5019744;28;20548;-94
2023/07/26 01:28:15;;;;;;;9.70;2.15;;;;;;;18.31;66.73;97669.47;5019279;28;20045;-94
2023/07/26 01:30:42;;;;;;;6.93;2.22;;;;;;;18.34;66.56;97674.59;5018616;28;20594;-95
2023/07/26 01:33:09;;;;;;;6.72;2.00;;;;;;;18.36;66.56;97673.50;5019086;28;20060;-95
2023/07/26 01:35:36;;;;;;;6.43;2.30;;;;;;;18.29;66.58;97653.41;5018284;28;20045;-94
2023/07/26 01:38:02;;;;;;;7.18;2.08;;;;;;;18.47;65.65;97681.59;5020742;28;20042;-94
2023/07/26 01:40:30;;;;;;;5.45;2.13;;;;;;;18.48;66.13;97693.25;5032104;28;20415;-93
2023/07/26 01:42:57;;;;;;;6.15;2.10;;;;;;;18.46;65.63;97696.06;5019000;28;20041;-94
2023/07/26 01:45:22;;;;;;;5.47;2.35;;;;;;;18.38;64.97;97668.84;5018640;28;20045;-95
2023/07/26 01:47:48;;;;;;;5.72;2.05;;;;;;;18.36;64.11;97667.25;5035419;28;20041;-95
2023/07/26 01:50:14;;;;;;;5.22;2.20;;;;;;;18.42;64.50;97672.19;5030926;28;20072;-92
2023/07/26 01:52:40;;;;;;;4.30;2.13;;;;;;;18.44;63.22;97681.00;5018930;28;20071;-93
2023/07/26 01:55:07;;;;;;;8.60;2.40;;;;;;;18.29;66.12;97683.03;5036285;28;20056;-94
2023/07/26 01:57:34;;;;;;;6.85;2.40;;;;;;;18.27;64.48;97683.13;5038436;28;20041;-94
2023/07/26 02:00:00;;;;;;;6.70;2.00;;;;;;;18.04;65.12;97679.50;5037303;28;20049;-94
2023/07/26 02:02:26;;;;;;;5.57;2.15;;;;;;;18.06;61.75;97666.78;5038287;28;20115;-94
2023/07/26 02:04:52;;;;;;;6.18;2.20;;;;;;;18.19;62.19;97699.00;5038328;28;20120;-94
2023/07/26 02:07:19;;;;;;;5.53;1.92;;;;;;;18.14;60.63;97681.50;5022051;28;20050;-95
2023/07/26 02:09:45;;;;;;;6.57;2.10;;;;;;;18.12;59.74;97656.53;5030735;28;20045;-95
2023/07/26 02:12:10;;;;;;;6.25;2.05;;;;;;;18.22;60.30;97676.41;5038288;28;20033;-93
2023/07/26 02:14:38;;;;;;;6.25;2.00;;;;;;;18.30;61.22;97689.25;5038570;28;20041;-95
2023/07/26 02:17:04;;;;;;;3.30;1.77;;;;;;;18.27;61.18;97677.75;5038226;28;20037;-95
2023/07/26 02:19:30;;;;;;;6.68;2.00;;;;;;;18.40;61.58;97701.91;5036603;28;20048;-94
2023/07/26 02:21:55;;;;;;;4.32;1.92;;;;;;;18.40;62.73;97693.81;5038495;28;20555;-95
2023/07/26 02:24:21;;;;;;;8.40;2.13;;;;;;;18.31;63.50;97669.47;5029252;28;20149;-95
2023/07/26 02:26:47;;;;;;;8.07;2.17;;;;;;;18.48;63.07;97694.09;5038438;28;20052;-94
2023/07/26 02:29:13;;;;;;;5.88;1.95;;;;;;;18.45;63.35;97682.69;5038426;28;20038;-93
2023/07/26 02:31:40;;;;;;;4.13;2.10;;;;;;;18.54;64.42;97692.78;5038133;28;20041;-95
2023/07/26 02:34:06;;;;;;;6.85;2.50;;;;;;;18.63;64.53;97696.59;5038285;28;20045;-95
2023/07/26 02:36:32;;;;;;;7.15;2.00;;;;;;;18.48;64.66;97674.41;5037119;28;20477;-94
2023/07/26 02:38:58;;;;;;;5.53;1.95;;;;;;;18.57;65.11;97697.94;5030787;28;20083;-94
2023/07/26 02:41:24;;;;;;;6.43;1.77;;;;;;;18.60;65.09;97697.69;5038912;28;20037;-94
2023/07/26 02:43:50;;;;;;;5.45;1.90;;;;;;;18.51;66.06;97684.06;5019707;28;20136;-93
2023/07/26 02:46:16;;;;;;;5.68;2.20;;;;;;;18.57;67.34;97708.69;5019157;28;20502;-94
2023/07/26 02:48:43;;;;;;;6.72;2.20;;;;;;;18.39;68.50;97685.84;5033631;28;20402;-94
2023/07/26 02:51:09;;;;;;;5.95;2.13;;;;;;;18.37;68.22;97683.31;5042115;28;20037;-94
2023/07/26 02:53:35;;;;;;;8.68;2.05;;;;;;;18.28;67.75;97678.59;5042129;28;20041;-93
2023/07/26 02:56:01;;;;;;;6.97;2.15;;;;;;;18.28;69.26;97708.19;5041692;28;20098;-94
2023/07/26 02:58:26;;;;;;;4.53;2.10;;;;;;;18.06;71.42;97692.81;5041758;28;20045;-94
2023/07/26 03:00:53;;;;;;;9.52;2.25;;;;;;;18.11;71.26;97717.56;5041868;28;20453;-93
2023/07/26 03:03:19;;;;;;;4.35;2.13;;;;;;;18.03;70.27;97706.50;5041583;28;20063;-95
2023/07/26 03:05:46;;;;;;;7.68;1.92;;;;;;;17.97;69.70;97715.88;5042126;28;20041;-94
2023/07/26 03:08:12;;;;;;;9.25;2.00;;;;;;;17.83;69.43;97703.47;5041385;28;20079;-95
2023/07/26 03:10:38;;;;;;;7.57;2.30;;;;;;;17.85;69.55;97711.44;5041349;28;20061;-94
2023/07/26 03:13:03;;;;;;;6.45;2.08;;;;;;;17.85;69.02;97722.19;5041639;28;20067;-94
2023/07/26 03:15:30;;;;;;;7.57;2.15;;;;;;;17.77;70.49;97737.97;5040989;28;20053;-94
2023/07/26 03:17:56;;;;;;;5.63;2.22;;;;;;;17.76;69.30;97718.31;5040246;28;20090;-95
2023/07/26 03:20:22;;;;;;;4.93;1.90;;;;;;;17.74;69.15;97722.06;5042713;28;20045;-95
2023/07/26 03:22:49;;;;;;;7.60;2.05;;;;;;;17.60;68.94;97701.56;5041329;28;20132;-94
2023/07/26 03:25:15;;;;;;;5.55;2.33;;;;;;;17.66;68.85;97715.41;5041022;28;20041;-95
2023/07/26 03:27:42;;;;;;;7.57;2.13;;;;;;;17.76;68.96;97733.56;5040962;28;20041;-94
2023/07/26 03:30:08;;;;;;;4.97;2.03;;;;;;;17.75;69.38;97738.09;5040793;28;20536;-94
2023/07/26 03:32:34;;;;;;;5.82;2.10;;;;;;;17.60;68.95;97720.38;5024021;28;20049;-95
2023/07/26 03:35:00;;;;;;;6.93;1.90;;;;;;;17.69;69.02;97734.97;5021073;28;20049;-94
2023/07/26 03:37:26;;;;;;;5.75;2.03;;;;;;;17.61;69.56;97719.44;5020913;28;20050;-93
2023/07/26 03:39:53;;;;;;;4.57;2.00;;;;;;;17.52;69.93;97704.81;5005959;28;20056;-94
2023/07/26 03:42:19;;;;;;;6.63;1.98;;;;;;;17.60;70.59;97723.06;5013062;28;20037;-95
2023/07/26 03:44:44;;;;;;;6.10;2.17;;;;;;;17.63;71.19;97731.78;5020645;28;20140;-93
2023/07/26 03:47:10;;;;;;;5.78;2.20;;;;;;;17.56;71.41;97722.41;5002490;28;20054;-94
2023/07/26 03:49:36;;;;;;;5.28;1.85;;;;;;;17.65;71.96;97747.78;5020578;28;20053;-94
2023/07/26 03:52:04;;;;;;;6.60;2.03;;;;;;;17.52;72.60;97731.72;5020427;28;20041;-94
2023/07/26 03:54:30;;;;;;;6.35;2.33;;;;;;;17.71;72.77;97763.47;5020643;28;20041;-94
2023/07/26 03:56:57;;;;;;;6.80;2.20;;;;;;;17.57;73.07;97737.59;5019477;28;20037;-93
2023/07/26 03:59:23;;;;;;;7.53;2.60;;;;;;;17.62;73.61;97751.56;5019341;28;20041;-94
2023/07/26 04:01:49;;;;;;;4.05;2.03;;;;;;;17.60;74.57;97750.81;5020571;28;20045;-94
2023/07/26 04:04:15;;;;;;;5.57;2.20;;;;;;;17.48;75.47;97734.69;5020464;28;20068;-94
2023/07/26 04:06:41;;;;;;;4.93;2.28;;;;;;;17.29;74.90;97735.16;5020522;28;20048;-95
2023/07/26 04:09:06;;;;;;;8.18;2.45;;;;;;;17.48;74.71;97775.00;5020325;28;20241;-93
2023/07/26 04:11:32;;;;;;;5.63;2.33;;;;;;;17.45;75.92;97771.56;5020602;28;20046;-94
2023/07/26 04:14:00;;;;;;;5.00;2.15;;;;;;;17.45;75.27;97747.38;5003675;28;20053;-94
2023/07/26 04:16:26;;;;;;;5.43;2.05;;;;;;;17.58;75.25;97768.88;5000251;28;20141;-94
2023/07/26 04:18:52;;;;;;;5.47;2.00;;;;;;;17.59;74.78;97765.22;5000458;28;20066;-94
2023/07/26 04:21:18;;;;;;;7.60;2.20;;;;;;;17.49;76.41;97756.09;5003654;28;20045;-94
2023/07/26 04:23:45;;;;;;;11.07;2.50;;;;;;;17.52;75.32;97757.69;5053138;28;20050;-93
2023/07/26 04:26:11;;;;;;;10.73;2.47;;;;;;;17.57;75.64;97759.09;5053382;28;20038;-93
2023/07/26 04:28:37;;;;;;;8.27;2.38;;;;;;;17.73;75.81;97780.34;5020337;28;20085;-94
2023/07/26 04:31:04;;;;;;;5.30;2.15;;;;;;;17.83;75.20;97796.75;5019821;28;20053;-94
2023/07/26 04:33:30;;;;;;;8.80;2.40;;;;;;;17.80;74.86;97778.09;5019765;28;20065;-94
2023/07/26 04:35:57;;;;;;;6.47;2.60;;;;;;;17.89;74.51;97788.22;5018920;28;20388;-94
2023/07/26 04:38:23;;;;;;;4.63;2.33;;;;;;;17.98;72.73;97787.56;5019473;28;20057;-92
2023/07/26 04:40:49;;;;;;;5.20;1.95;;;;;;;18.02;72.27;97777.41;5019679;28;20041;-94
2023/07/26 04:43:16;;;;;;;6.30;2.10;;;;;;;18.15;72.15;97782.75;5019635;28;20044;-94
2023/07/26 04:45:42;;;;;;;6.18;2.30;;;;;;;18.21;72.52;97783.16;5016091;28;20038;-93
2023/07/26 04:48:09;;;;;;;6.22;2.33;;;;;;;18.33;72.02;97786.78;5000149;28;20046;-94
2023/07/26 04:50:35;;;;;;;4.80;2.15;;;;;;;18.33;73.54;97791.31;5000145;28;20049;-95
2023/07/26 04:53:01;;;;;;;7.30;3.53;;;;;;;18.24;74.63;97774.88;5001191;28;20041;-94
2023/07/26 04:55:27;;;;;;;5.57;2.67;;;;;;;18.38;74.76;97792.66;5000117;28;20044;-94
2023/07/26 04:57:52;;;;;;;4.80;2.40;;;;;;;18.26;75.04;97778.31;5010250;28;20137;-93
2023/07/26 05:00:18;;;;;;;4.75;2.30;;;;;;;18.35;77.85;97784.84;5019735;28;20037;-94
2023/07/26 05:02:44;;;;;;;6.88;2.78;;;;;;;18.54;77.72;97804.97;5021994;28;20099;-94
2023/07/26 05:05:12;;;;;;;11.07;4.25;;;;;;;18.50;77.68;97790.91;5019437;28;20042;-94
2023/07/26 05:07:37;;;;;;;6.47;2.38;;;;;;;18.65;75.84;97805.91;5019136;28;20052;-94
2023/07/26 05:10:04;;;;;;;7.68;2.50;;;;;;;18.74;74.98;97830.44;5020425;28;20025;-94
2023/07/26 05:12:30;;;;;;;7.30;2.70;;;;;;;18.79;74.69;97826.44;5020628;28;20095;-93
2023/07/26 05:14:56;;;;;;;6.22;2.45;;;;;;;18.98;74.08;97841.22;5020229;28;20080;-95
2023/07/26 05:17:22;;;;;;;8.63;2.72;;;;;;;18.83;74.33;97822.53;5017230;28;20042;-94
2023/07/26 05:19:48;;;;;;;10.32;2.60;;;;;;;18.88;72.17;97838.34;5020556;28;20049;-93
2023/07/26 05:22:15;;;;;;;7.22;2.20;;;;;;;18.96;73.15;97851.25;5019590;28;20044;-93
2023/07/26 05:24:41;;;;;;;9.02;2.60;;;;;;;19.03;72.83;97841.72;5020075;28;20092;-95
2023/07/26 05:27:07;;;;;;;4.97;2.20;;;;;;;19.06;72.84;97822.59;5020330;28;20053;-95
2023/07/26 05:29:33;;;;;;;7.40;2.60;;;;;;;19.17;72.88;97837.94;5020293;28;20406;-96
2023/07/26 05:31:59;;;;;;;9.15;2.60;;;;;;;19.24;73.61;97813.09;5022941;28;20048;-96
2023/07/26 05:34:24;;;;;;;7.18;2.63;;;;;;;19.77;73.08;97823.38;5022773;28;20044;-95
2023/07/26 05:36:51;;;;;;;7.78;2.15;;;;;;;20.13;70.10;97821.41;5024643;28;20045;-95
2023/07/26 05:39:18;;;;;;;6.60;2.17;;;;;;;20.59;65.81;97819.50;5024145;28;20060;-95
2023/07/26 05:41:44;;;;;;;8.48;2.65;;;;;;;20.87;63.98;97818.88;5017560;28;20044;-94
2023/07/26 05:44:10;;;;;;;8.55;2.70;;;;;;;21.01;62.11;97815.00;5022094;28;20049;-96
2023/07/26 05:46:36;;;;;;;7.57;2.90;;;;;;;20.81;63.54;97818.53;5021930;28;20042;-95
2023/07/26 05:49:02;;;;;;;9.65;3.13;;;;;;;20.90;66.06;97823.16;5024490;28;20033;-95
2023/07/26 05:51:28;;;;;;;6.38;2.70;;;;;;;21.41;63.00;97838.66;5025639;28;20045;-95
2023/07/26 05:53:54;;;;;;;7.78;3.00;;;;;;;21.68;61.28;97821.88;5024318;28;20042;-95
2023/07/26 05:56:22;;;;;;;6.30;2.67;;;;;;;21.97;59.93;97850.94;5026506;28;20056;-94
2023/07/26 05:58:48;;;;;;;8.80;2.67;;;;;;;21.85;61.10;97839.34;5028426;28;20045;-95
2023/07/26 06:01:14;;;;;;;9.50;3.22;;;;;;;21.84;60.51;97840.34;5026799;28;20065;-95
2023/07/26 06:03:42;;;;;;;6.90;3.13;;;;;;;21.95;59.27;97848.38;5028167;28;20049;-95
2023/07/26 06:06:08;;;;;;;10.30;2.90;;;;;;;21.84;60.13;97848.47;5027089;28;20049;-94
2023/07/26 06:08:34;;;;;;;7.40;2.72;;;;;;;21.62;61.11;97868.44;5025860;28;20045;-95
2023/07/26 06:11:00;;;;;;;10.25;2.90;;;;;;;21.37;60.87;97856.13;5025311;28;20050;-94
2023/07/26 06:13:27;;;;;;;10.02;2.75;;;;;;;21.24;62.90;97860.88;5026995;28;20050;-94
2023/07/26 06:15:53;;;;;;;10.50;3.47;;;;;;;20.95;61.70;97863.31;5023559;28;20041;-95
2023/07/26 06:18:19;;;;;;;11.35;3.28;;;;;;;20.84;62.56;97854.28;5004221;28;20112;-94
2023/07/26 06:20:45;;;;;;;9.25;3.10;;;;;;;20.76;61.62;97853.22;5001969;28;20041;-95
2023/07/26 06:23:11;;;;;;;8.27;2.85;;;;;;;20.99;61.95;97860.25;5009465;28;20046;-95
2023/07/26 06:25:37;;;;;;;11.27;3.67;;;;;;;21.11;59.22;97858.34;5010315;28;20053;-95
2023/07/26 06:28:03;;;;;;;8.40;3.40;;;;;;;21.19;59.82;97879.31;5012527;28;20036;-94
2023/07/26 06:30:31;;;;;;;7.70;3.10;;;;;;;21.21;60.01;97880.03;5017030;28;20045;-94
2023/07/26 06:32:57;;;;;;;9.30;2.93;;;;;;;21.23;60.21;97900.56;5026824;28;20407;-93
2023/07/26 06:35:23;;;;;;;6.30;2.75;;;;;;;21.32;57.55;97898.94;5023404;28;20069;-94
2023/07/26 06:37:49;;;;;;;8.20;2.47;;;;;;;21.22;57.50;97871.78;5028289;28;20041;-96
2023/07/26 06:40:26;;;;;;;10.93;2.90;;;;;;;21.49;58.57;97901.09;5030593;28;20060;-95
2023/07/26 06:42:52;;;;;;;7.40;2.90;;;;;;;21.63;58.78;97896.31;5029566;28;20042;-94
2023/07/26 06:45:18;;;;;;;8.20;3.10;;;;;;;21.77;57.68;97893.25;5027365;28;20048;-93
2023/07/26 06:47:45;;;;;;;12.45;3.20;;;;;;;21.79;58.24;97880.47;5027343;28;20041;-93
2023/07/26 06:50:11;;;;;;;12.90;3.75;;;;;;;21.89;57.83;97880.53;5026106;28;20561;-93
2023/07/26 06:52:37;;;;;;;13.00;3.50;;;;;;;22.06;56.68;97898.00;5026301;28;20041;-92
2023/07/26 06:55:04;;;;;;;13.80;3.40;;;;;;;22.10;56.37;97892.19;5022125;28;20068;-93
2023/07/26 06:57:30;;;;;;;12.95;3.38;;;;;;;22.15;56.37;97892.63;5024444;28;20053;-93
2023/07/26 06:59:56;;;;;;;20.80;3.70;;;;;;;21.77;56.67;97903.25;5025536;28;20045;-91
2023/07/26 07:02:22;;;;;;;12.48;3.60;;;;;;;21.76;56.99;97896.97;5023651;28;20072;-92
2023/07/26 07:04:49;;;;;;;18.15;4.22;;;;;;;21.93;58.82;97901.78;5024494;28;20052;-92
2023/07/26 07:07:15;;;;;;;11.88;6.78;;;;;;;21.74;60.93;97888.13;5027239;28;20041;-92
2023/07/26 07:09:42;;;;;;;10.55;3.50;;;;;;;21.80;60.74;97895.72;5021552;28;20046;-93
2023/07/26 07:12:09;;;;;;;15.30;3.22;;;;;;;22.03;61.23;97919.91;5023256;28;20041;-94
2023/07/26 07:14:35;;;;;;;11.23;3.38;;;;;;;22.03;57.49;97898.25;5023713;28;20044;-92
2023/07/26 07:17:01;;;;;;;15.10;3.38;;;;;;;21.97;58.46;97899.66;5021339;28;20072;-92
2023/07/26 07:19:27;;;;;;;10.95;3.20;;;;;;;21.87;57.11;97894.19;5021233;28;20045;-92
2023/07/26 07:21:54;;;;;;;18.20;4.13;;;;;;;22.15;57.79;97908.88;5024101;28;20506;-93
2023/07/26 07:24:20;;;;;;;15.85;3.58;;;;;;;22.44;58.57;97929.81;5026953;28;20064;-92
2023/07/26 07:26:46;;;;;;;13.68;3.85;;;;;;;22.55;55.84;97909.91;5021493;28;20041;-92
2023/07/26 07:29:12;;;;;;;10.07;2.97;;;;;;;22.67;53.42;97916.09;5026210;28;20041;-93
2023/07/26 07:31:38;;;;;;;10.75;3.05;;;;;;;22.66;53.42;97911.63;5057584;28;20132;-91
2023/07/26 07:34:04;;;;;;;12.50;3.33;;;;;;;22.77;52.84;97904.25;5019363;28;20064;-92
2023/07/26 07:36:30;;;;;;;14.18;3.72;;;;;;;23.01;53.49;97923.88;5021039;28;20060;-92
2023/07/26 07:38:57;;;;;;;9.35;3.80;;;;;;;23.11;52.89;97916.59;5022347;28;20060;-93
2023/07/26 07:41:23;;;;;;;10.57;3.22;;;;;;;23.27;52.90;97932.31;5021733;28;20534;-92
2023/07/26 07:43:49;;;;;;;17.42;3.40;;;;;;;23.28;53.17;97918.63;5015605;28;20049;-92
2023/07/26 07:46:15;;;;;;;18.20;3.70;;;;;;;23.42;52.08;97916.47;5019709;28;20406;-94
2023/07/26 07:48:42;;;;;;;14.20;3.45;;;;;;;23.68;51.86;97935.72;5021832;28;20048;-92
2023/07/26 07:51:08;;;;;;;17.15;3.40;;;;;;;23.85;52.08;97939.59;5022222;28;20045;-94
2023/07/26 07:53:34;;;;;;;17.95;5.07;;;;;;;23.51;50.66;97940.06;5018451;28;20136;-92
2023/07/26 07:56:01;;;;;;;9.15;3.10;;;;;;;23.42;50.79;97924.59;5020786;28;20061;-95
2023/07/26 07:58:27;;;;;;;11.70;2.80;;;;;;;23.28;54.89;97934.88;5021427;28;20050;-91
2023/07/26 08:00:57;;;;;;;12.05;3.30;;;;;;;23.36;54.81;97924.19;5020882;28;20095;-94
2023/07/26 08:03:23;;;;;;;9.18;3.20;;;;;;;23.51;52.49;97934.63;5024211;28;20045;-91
2023/07/26 08:05:50;;;;;;;10.90;3.25;;;;;;;23.83;52.57;97953.31;5017647;28;20457;-93
2023/07/26 08:08:16;;;;;;;13.13;3.30;;;;;;;24.10;50.72;97957.13;5019854;28;20033;-93
2023/07/26 08:10:42;;;;;;;11.25;2.88;;;;;;;24.18;51.66;97963.56;5018554;28;20095;-94
2023/07/26 08:13:09;;;;;;;12.05;3.15;;;;;;;24.05;51.30;97927.72;5016178;28;20061;-93
2023/07/26 08:15:37;;;;;;;10.20;3.13;;;;;;;24.17;51.43;97947.38;5015527;28;20124;-92
2023/07/26 08:18:04;;;;;;;12.73;2.90;;;;;;;24.47;50.36;97967.19;5019404;28;20044;-94
2023/07/26 08:20:32;;;;;;;13.07;3.63;;;;;;;24.54;51.15;97965.59;5019171;28;20045;-93
2023/07/26 08:22:58;;;;;;;10.95;3.25;;;;;;;24.51;50.56;97955.88;5013953;28;20056;-94
2023/07/26 08:25:24;;;;;;;15.40;3.88;;;;;;;24.63;49.07;97955.69;5017738;28;20049;-95
2023/07/26 08:27:50;;;;;;;13.82;4.00;;;;;;;25.37;46.22;97952.84;5015975;28;20072;-93
2023/07/26 08:30:17;;;;;;;11.13;3.30;;;;;;;26.00;45.40;97962.78;5016716;28;20038;-95
2023/07/26 08:32:43;;;;;;;12.40;4.15;;;;;;;26.21;43.90;97964.25;5020987;28;20029;-95
2023/07/26 08:35:09;;;;;;;10.55;2.85;;;;;;;25.81;42.32;97954.75;5020383;28;20052;-95
2023/07/26 08:37:35;;;;;;;9.68;2.60;;;;;;;26.42;41.70;97962.00;5020990;28;20053;-94
2023/07/26 08:40:01;;;;;;;9.38;3.30;;;;;;;26.55;40.52;97939.75;5022291;28;20049;-95
2023/07/26 08:42:27;;;;;;;12.27;2.75;;;;;;;26.66;41.25;97962.34;5022333;28;20068;-94
2023/07/26 08:44:54;;;;;;;11.23;3.08;;;;;;;25.76;42.34;97968.84;5020000;28;20465;-95
2023/07/26 08:47:22;;;;;;;9.45;2.50;;;;;;;26.02;41.67;97979.81;5007929;28;20053;-94
2023/07/26 08:49:49;;;;;;;10.13;2.80;;;;;;;26.32;42.13;97963.13;5016619;28;20048;-94
2023/07/26 08:52:16;;;;;;;6.65;2.72;;;;;;;26.42;42.09;97977.53;5008689;28;20042;-94
2023/07/26 08:54:43;;;;;;;10.27;2.92;;;;;;;26.52;42.20;97975.50;5015914;28;20049;-94
2023/07/26 08:57:09;;;;;;;7.95;2.75;;;;;;;26.43;42.22;97987.38;5018881;28;20037;-94
2023/07/26 08:59:35;;;;;;;7.60;2.72;;;;;;;25.56;43.12;97968.13;5009305;28;20042;-94
2023/07/26 09:02:03;;;;;;;6.28;2.45;;;;;;;25.38;44.11;97975.47;5017396;28;20040;-92
2023/07/26 09:04:31;;;;;;;7.37;2.70;;;;;;;25.09;44.28;97964.72;5018488;28;20132;-93
2023/07/26 09:07:00;;;;;;;6.10;2.60;;;;;;;25.57;44.83;97969.00;5015821;28;20044;-93
2023/07/26 09:09:27;;;;;;;7.65;2.67;;;;;;;25.81;44.27;97971.09;5018447;28;20073;-94
2023/07/26 09:11:53;;;;;;;7.63;2.47;;;;;;;25.86;43.65;97979.63;5017035;28;20047;-95
2023/07/26 09:14:19;;;;;;;8.95;2.60;;;;;;;26.21;43.22;97986.91;5018573;28;20136;-92
2023/07/26 09:16:44;;;;;;;10.48;2.70;;;;;;;26.52;42.71;97980.13;5015407;28;20053;-93
2023/07/26 09:19:10;;;;;;;7.85;2.80;;;;;;;27.05;41.40;97977.16;5016245;28;20052;-96
2023/07/26 09:21:38;;;;;;;7.85;2.83;;;;;;;26.95;42.17;97970.97;5015020;28;20096;-95
2023/07/26 09:24:04;;;;;;;9.55;2.75;;;;;;;27.42;42.83;97984.09;5017020;28;20042;-93
2023/07/26 09:26:33;;;;;;;9.93;3.10;;;;;;;27.48;42.29;97971.66;5018155;28;20605;-94
2023/07/26 09:28:59;;;;;;;9.02;2.60;;;;;;;27.58;42.50;97996.06;5013839;28;20068;-94
2023/07/26 09:31:32;;;;;;;6.72;2.40;;;;;;;27.76;42.28;97995.91;5017559;28;20061;-95
2023/07/26 09:33:59;;;;;;;12.75;2.72;;;;;;;27.78;41.91;97985.69;5017917;28;20037;-96
2023/07/26 09:36:25;;;;;;;12.40;2.65;;;;;;;27.77;43.73;97982.09;5019250;28;20137;-94
2023/07/26 09:38:52;;;;;;;9.32;3.03;;;;;;;27.69;43.51;97986.69;5014355;28;20078;-94
2023/07/26 09:41:23;;;;;;;8.52;2.85;;;;;;;27.86;43.01;97985.72;5018552;28;20046;-94
2023/07/26 09:43:50;;;;;;;8.85;2.70;;;;;;;27.24;43.29;97981.50;5017856;28;20041;-95
2023/07/26 09:46:17;;;;;;;10.88;3.28;;;;;;;27.25;44.24;97996.84;5018021;28;20040;-94
2023/07/26 09:48:57;;;;;;;9.73;2.83;;;;;;;27.32;43.50;97988.00;5017261;28;20042;-95
2023/07/26 09:51:25;;;;;;;10.75;3.03;;;;;;;27.41;43.44;97998.78;5011157;28;20049;-95
2023/07/26 09:53:54;;;;;;;12.20;3.43;;;;;;;27.33;44.48;97984.28;5018133;28;20054;-94
2023/07/26 09:56:21;;;;;;;9.43;2.97;;;;;;;27.55;44.48;97978.16;5012605;28;20279;-95
2023/07/26 09:58:49;;;;;;;11.05;3.03;;;;;;;27.17;45.17;97979.56;5017091;28;20387;-95
2023/07/26 10:01:17;;;;;;;12.40;2.80;;;;;;;26.64;46.41;97976.13;5018057;28;20042;-94
2023/07/26 10:03:47;;;;;;;10.80;2.88;;;;;;;26.48;47.34;97970.53;5015795;28;20069;-95
2023/07/26 10:06:15;;;;;;;8.63;2.80;;;;;;;26.31;48.07;97975.06;5014193;28;20042;-94
2023/07/26 10:08:42;;;;;;;8.90;3.30;;;;;;;26.47;47.08;98001.56;5015394;28;20038;-94
2023/07/26 10:11:10;;;;;;;7.00;2.70;;;;;;;27.20;46.55;97982.84;5018681;28;20080;-93
2023/07/26 10:13:37;;;;;;;10.63;2.97;;;;;;;27.72;44.65;97970.00;5018082;28;20045;-96
2023/07/26 10:16:05;;;;;;;12.20;3.30;;;;;;;28.26;43.39;97998.53;5014395;28;20065;-95
2023/07/26 10:18:32;;;;;;;9.20;3.00;;;;;;;28.77;40.99;97983.72;5022380;28;20045;-94
2023/07/26 10:21:00;;;;;;;8.77;3.07;;;;;;;28.81;41.65;97982.34;5021662;28;20409;-95
2023/07/26 10:23:26;;;;;;;7.88;2.88;;;;;;;29.14;42.90;97995.91;5024268;28;20302;-95
2023/07/26 10:25:54;;;;;;;10.93;3.30;;;;;;;28.73;42.29;97977.75;5019045;28;20496;-95
2023/07/26 10:28:24;;;;;;;8.20;3.35;;;;;;;28.74;42.71;97998.63;5020762;28;20042;-94
2023/07/26 10:30:51;;;;;;;15.35;3.40;;;;;;;27.59;44.72;97993.19;5009806;28;20095;-95
2023/07/26 10:33:17;;;;;;;9.20;3.13;;;;;;;27.72;44.73;98000.03;5013135;28;20060;-94
2023/07/26 10:35:43;;;;;;;13.25;3.22;;;;;;;27.20;46.46;97990.16;5018867;28;20038;-93
2023/07/26 10:38:13;;;;;;;9.20;3.67;;;;;;;26.91;47.66;97974.19;5021774;28;20107;-95
2023/07/26 10:40:40;;;;;;;15.77;3.20;;;;;;;26.98;46.74;97973.38;5037933;28;20513;-93
2023/07/26 10:43:36;;;;;;;11.50;2.92;;;;;;;27.57;46.85;97995.22;5028540;28;20057;-94
2023/07/26 10:46:09;;;;;;;9.80;3.10;;;;;;;27.19;46.26;97978.38;5033109;28;20087;-94
2023/07/26 10:48:36;;;;;;;13.07;3.20;;;;;;;26.95;47.06;97981.03;5035858;28;20567;-94
2023/07/26 10:51:22;;;;;;;13.65;3.55;;;;;;;27.04;48.11;98001.88;5034917;28;20144;-94
2023/07/26 10:53:48;;;;;;;13.80;3.10;;;;;;;26.57;48.42;97972.34;5037602;28;20056;-94
2023/07/26 10:56:19;;;;;;;11.00;3.28;;;;;;;26.80;49.33;97999.91;5037559;28;20041;-94
2023/07/26 10:58:49;;;;;;;13.80;3.22;;;;;;;27.02;48.68;98009.38;5037344;28;20045;-95
2023/07/26 11:01:51;;;;;;;9.52;3.40;;;;;;;27.30;47.86;98009.16;5037586;28;20477;-95
2023/07/26 11:04:21;;;;;;;9.23;3.15;;;;;;;27.39;46.78;98008.16;5037783;28;20375;-94
2023/07/26 11:06:52;;;;;;;11.95;3.22;;;;;;;27.10;48.74;98001.22;5037368;28;20041;-93
2023/07/26 11:09:20;;;;;;;10.07;2.97;;;;;;;27.09;48.62;97980.41;5039244;28;20045;-94
2023/07/26 11:11:58;;;;;;;12.33;3.00;;;;;;;26.72;48.56;98008.91;5039919;28;20045;-94
2023/07/26 11:14:25;;;;;;;12.50;3.50;;;;;;;26.72;49.63;97989.81;5040125;28;20048;-93
2023/07/26 11:16:53;;;;;;;13.82;3.35;;;;;;;26.61;48.98;98010.03;5036236;28;20048;-94
2023/07/26 11:19:19;;;;;;;7.40;3.17;;;;;;;27.13;48.11;98002.75;5037643;28;20055;-94
2023/07/26 11:21:44;;;;;;;10.35;3.08;;;;;;;27.36;48.07;98003.88;5034560;28;20045;-94
2023/07/26 11:24:10;;;;;;;12.77;3.70;;;;;;;27.37;47.83;97991.06;5039514;28;20032;-93
2023/07/26 11:26:40;;;;;;;9.50;3.60;;;;;;;28.04;45.79;98000.09;5035282;28;20041;-94
2023/07/26 11:29:07;;;;;;;9.48;3.20;;;;;;;28.33;45.07;97995.94;5025256;28;20036;-96
2023/07/26 11:31:33;;;;;;;9.75;3.38;;;;;;;28.50;45.61;98009.59;5041952;28;20110;-94